Seattle Tacoma International Airport
KSEA : now visible

Airfield :











YOU CAN JOIN US ON...

 
LOGIN :

Register | Disclaimer

   EN    FR    IT 

 









Legend :    VFR   Marginal VFR   IFR   Intensive IFR   Very Intensive IFR
Visi :
Ceiling :
>= 8 km
>= 3000ft
5 to 8 km
1000 to 3000 ft
1500m to 5 km
500 to 1000 ft
800 to 1500m
200 to 500 ft
< 800m
< 200 ft
Symbols :   Thunderstorms  Fog  Heavy snow  Heavy precipitations  Wind > 20 kt






- Airport Elevation : 433 ft
- IATA code : SEA


KSEA - Seattle Tacoma International

CURRENT METAR :
  • 100953Z 04003KT 10SM CLR 09/02 A3008 RMK AO2 SLP192 T00940022

EXPIRED METARs :
  • 100853Z 01005KT 10SM CLR 10/02 A3008 RMK AO2 SLP192 T01000022 53001
  • 100753Z 35003KT 10SM CLR 11/02 A3008 RMK AO2 SLP192 T01060017 402060056

TAF KSEA
Valid from the 10 at 09:00 until the 11 at 12:00 UTC


100856Z 1009/1112 VRB03KT P6SM FEW250
FM101200 VRB03KT P6SM SCT250
FM101800 32005KT P6SM SCT100 BKN200
FM102100 34010KT P6SM SCT050 BKN100
FM110500 04005KT P6SM OVC050



MET'MAP, your aeronautical weather chart ! - Copyright ORBIFLY December 2007 - Disclaimer

ORBIFLY MET'MAP TEAM :

Programming & Development : Alexandra Zaïnal
Concept & original design : Baudouin d'Aumeries
Assistance for programming : Marc-Olivier Méhu
Technical & hardware support : Manuel Goepfert

Contact : metmap@orbifly.com




SOURCES & CREDITS :

   NOAA       Earth
Advisory